createdAt,value
2023-02-14T00:00:01.535Z,7.31
2023-02-14T00:05:03.252Z,7.42
2023-02-14T00:10:05.342Z,7.36
2023-02-14T00:15:22.350Z,7.37
2023-02-14T00:20:24.295Z,7.31
2023-02-14T00:25:25.837Z,7.32
2023-02-14T00:30:27.542Z,7.32
2023-02-14T00:35:29.208Z,7.30
2023-02-14T00:40:30.757Z,7.18
2023-02-14T00:45:32.336Z,7.30
2023-02-14T00:50:33.991Z,7.46
2023-02-14T00:55:35.529Z,7.38
2023-02-14T01:00:37.093Z,7.36
2023-02-14T01:05:38.704Z,7.37
2023-02-14T01:10:40.613Z,7.31
2023-02-14T01:15:44.709Z,7.26
2023-02-14T01:20:46.452Z,7.20
2023-02-14T01:25:48.110Z,7.22
2023-02-14T01:30:51.772Z,7.16
2023-02-14T01:36:25.651Z,7.20
2023-02-14T01:41:29.262Z,7.16
2023-02-14T01:46:33.096Z,6.91
2023-02-14T01:51:35.760Z,7.08
2023-02-14T01:56:42.101Z,7.09
2023-02-14T02:01:44.309Z,7.10
2023-02-14T02:06:49.645Z,7.06
2023-02-14T02:11:51.224Z,7.11
2023-02-14T02:17:01.984Z,7.08
2023-02-14T02:22:22.251Z,7.11
2023-02-14T02:27:48.497Z,7.15
2023-02-14T02:33:15.860Z,7.11
2023-02-14T02:38:36.218Z,7.07
2023-02-14T02:43:59.636Z,7.10
2023-02-14T02:50:10.217Z,7.17
2023-02-14T02:55:17.888Z,7.13
2023-02-14T03:00:22.521Z,7.07
2023-02-14T03:05:24.636Z,7.06
2023-02-14T03:10:29.306Z,7.07
2023-02-14T03:15:52.432Z,7.09
2023-02-14T03:21:20.165Z,6.99
2023-02-14T03:26:27.394Z,7.06
2023-02-14T03:31:56.942Z,7.12
2023-02-14T03:37:10.923Z,6.99
2023-02-14T03:42:19.509Z,7.04
2023-02-14T03:47:25.042Z,6.86
2023-02-14T03:52:27.727Z,7.03
2023-02-14T03:57:35.094Z,6.98
2023-02-14T04:02:43.537Z,6.96
2023-02-14T04:07:47.699Z,7.05
2023-02-14T04:12:49.518Z,7.05
2023-02-14T04:18:09.453Z,7.00
2023-02-14T04:23:11.050Z,6.92
2023-02-14T04:28:13.036Z,6.99
2023-02-14T04:33:14.611Z,6.93
2023-02-14T04:38:16.169Z,6.97
2023-02-14T04:43:18.671Z,6.93
2023-02-14T04:48:20.272Z,6.93
2023-02-14T04:53:22.485Z,6.97
2023-02-14T04:58:24.101Z,6.89
2023-02-14T05:03:25.708Z,7.00
2023-02-14T05:08:27.299Z,6.86
2023-02-14T05:13:28.863Z,6.94
2023-02-14T05:18:30.415Z,6.94
2023-02-14T05:23:32.027Z,6.89
2023-02-14T05:28:33.923Z,6.92
2023-02-14T05:33:35.896Z,6.94
2023-02-14T05:38:37.492Z,6.86
2023-02-14T05:43:39.192Z,6.87
2023-02-14T05:48:40.922Z,6.85
2023-02-14T05:53:42.538Z,6.65
2023-02-14T05:58:44.143Z,6.90
2023-02-14T06:03:45.708Z,6.81
2023-02-14T06:08:47.320Z,6.78
2023-02-14T06:13:48.881Z,6.93
2023-02-14T06:18:50.495Z,6.85
2023-02-14T06:23:52.352Z,6.95
2023-02-14T06:28:55.385Z,6.90
2023-02-14T06:33:56.968Z,6.70
2023-02-14T06:38:58.532Z,7.04
2023-02-14T06:44:00.181Z,7.07
2023-02-14T06:49:01.755Z,7.12
2023-02-14T06:54:03.375Z,6.95
2023-02-14T06:59:05.739Z,6.78
2023-02-14T07:04:07.297Z,6.85
2023-02-14T07:09:08.865Z,6.81
2023-02-14T07:14:10.477Z,7.00
2023-02-14T07:19:12.075Z,7.01
2023-02-14T07:24:13.694Z,7.10
2023-02-14T07:29:15.306Z,7.25
2023-02-14T07:34:16.991Z,7.05
2023-02-14T07:39:18.609Z,7.05
2023-02-14T07:44:20.489Z,7.22
2023-02-14T07:49:22.341Z,7.29
2023-02-14T07:54:24.015Z,7.13
2023-02-14T07:59:26.161Z,7.38
2023-02-14T08:04:27.809Z,7.33
2023-02-14T08:09:29.399Z,7.37
2023-02-14T08:14:30.969Z,7.42
2023-02-14T08:19:32.687Z,7.54
2023-02-14T08:24:34.264Z,7.36
2023-02-14T08:29:35.832Z,7.21
2023-02-14T08:34:37.382Z,7.49
2023-02-14T08:39:39.620Z,7.47
2023-02-14T08:44:41.151Z,7.32
2023-02-14T08:49:42.759Z,7.51
2023-02-14T08:54:44.345Z,7.14
2023-02-14T08:59:45.956Z,7.55
2023-02-14T09:04:47.576Z,7.23
2023-02-14T09:09:49.148Z,7.62
2023-02-14T09:14:50.724Z,7.49
2023-02-14T09:19:52.343Z,7.66
2023-02-14T09:24:53.931Z,7.80
2023-02-14T09:29:55.557Z,7.86
2023-02-14T09:35:15.864Z,7.86
2023-02-14T09:40:19.326Z,7.87
2023-02-14T09:45:29.346Z,7.88
2023-02-14T09:50:35.328Z,7.69
2023-02-14T09:56:01.946Z,7.64
2023-02-14T10:01:09.663Z,7.96
2023-02-14T10:06:32.666Z,7.76
2023-02-14T10:11:34.547Z,7.57
2023-02-14T10:16:41.954Z,7.89
2023-02-14T10:21:56.989Z,8.06
2023-02-14T10:32:30.819Z,8.06
2023-02-14T10:37:48.244Z,7.97
2023-02-14T10:43:21.064Z,8.01
2023-02-14T10:48:42.892Z,8.05
2023-02-14T10:53:56.411Z,7.93
2023-02-14T10:58:59.305Z,7.73
2023-02-14T11:04:06.244Z,7.92
2023-02-14T11:09:10.071Z,8.12
2023-02-14T11:19:37.226Z,8.15
2023-02-14T11:24:41.493Z,8.18
2023-02-14T11:29:44.824Z,8.22
2023-02-14T11:34:52.536Z,8.08
2023-02-14T11:39:56.581Z,8.23
2023-02-14T11:44:59.501Z,8.30
2023-02-14T11:50:06.072Z,8.27
2023-02-14T11:55:07.649Z,8.22
2023-02-14T12:00:17.990Z,8.22
2023-02-14T12:05:21.489Z,8.24
2023-02-14T12:10:37.386Z,8.18
2023-02-14T12:15:56.307Z,8.16
2023-02-14T12:21:16.179Z,8.18
2023-02-14T12:26:49.361Z,8.19
2023-02-14T12:31:51.123Z,8.18
2023-02-14T12:37:11.078Z,8.20
2023-02-14T12:42:44.996Z,8.19
2023-02-14T12:47:54.701Z,8.16
2023-02-14T12:52:59.864Z,8.15
2023-02-14T12:58:21.604Z,8.14
2023-02-14T13:03:33.656Z,8.19
2023-02-14T13:08:53.173Z,8.14
2023-02-14T13:14:28.522Z,7.65
2023-02-14T13:19:41.939Z,8.18
2023-02-14T13:24:47.391Z,8.13
2023-02-14T13:29:54.970Z,8.08
2023-02-14T13:34:56.933Z,7.89
2023-02-14T13:40:02.210Z,8.09
2023-02-14T13:45:04.217Z,8.13
2023-02-14T13:50:06.436Z,8.15
2023-02-14T13:55:20.578Z,8.14
2023-02-14T14:00:29.082Z,8.10
2023-02-14T14:05:30.687Z,8.16
2023-02-14T14:10:44.886Z,8.19
2023-02-14T14:16:23.235Z,8.18
2023-02-14T14:21:32.037Z,8.17
2023-02-14T14:26:40.451Z,8.02
2023-02-14T14:31:42.280Z,8.12
2023-02-14T14:36:44.023Z,8.15
2023-02-14T14:41:45.604Z,8.13
2023-02-14T14:46:47.236Z,8.12
2023-02-14T14:51:49.032Z,8.12
2023-02-14T14:57:01.627Z,8.08
2023-02-14T15:02:05.444Z,7.97
2023-02-14T15:07:33.821Z,7.96
2023-02-14T15:12:54.221Z,7.88
2023-02-14T15:17:55.998Z,7.85
2023-02-14T15:22:57.755Z,7.69
2023-02-14T15:27:59.393Z,7.64
2023-02-14T15:33:03.425Z,7.62
2023-02-14T15:38:07.039Z,7.50
2023-02-14T15:43:17.692Z,7.54
2023-02-14T15:48:24.316Z,7.52
2023-02-14T15:54:05.388Z,7.46
2023-02-14T15:59:14.008Z,7.47
2023-02-14T16:04:15.575Z,7.36
2023-02-14T16:09:28.465Z,7.21
2023-02-14T16:14:35.628Z,7.39
2023-02-14T16:19:42.633Z,7.28
2023-02-14T16:24:44.248Z,7.23
2023-02-14T16:29:45.777Z,7.16
2023-02-14T16:34:48.245Z,7.16
2023-02-14T16:39:51.473Z,6.97
2023-02-14T16:44:53.228Z,6.96
2023-02-14T16:49:54.818Z,6.93
2023-02-14T16:54:57.183Z,6.74
2023-02-14T16:59:58.736Z,6.77
2023-02-14T17:05:00.361Z,6.72
2023-02-14T17:10:07.938Z,6.67
2023-02-14T17:15:13.200Z,6.62
2023-02-14T17:20:14.850Z,6.47
2023-02-14T17:25:16.430Z,6.34
2023-02-14T17:30:18.305Z,6.33
2023-02-14T17:35:20.021Z,6.30
2023-02-14T17:40:21.591Z,6.27
2023-02-14T17:45:23.220Z,6.25
2023-02-14T17:50:24.880Z,6.07
2023-02-14T17:55:26.425Z,6.17
2023-02-14T18:00:28.331Z,6.06
2023-02-14T18:05:30.045Z,6.04
2023-02-14T18:10:31.709Z,6.11
2023-02-14T18:15:33.260Z,6.00
2023-02-14T18:20:34.837Z,6.03
2023-02-14T18:25:36.407Z,6.06
2023-02-14T18:30:37.999Z,5.91
2023-02-14T18:35:39.708Z,5.88
2023-02-14T18:40:42.783Z,5.82
2023-02-14T18:45:44.361Z,5.65
2023-02-14T18:50:45.975Z,5.58
2023-02-14T18:55:47.945Z,5.55
2023-02-14T19:00:49.822Z,5.36
2023-02-14T19:05:53.129Z,5.32
2023-02-14T19:10:54.657Z,5.24
2023-02-14T19:15:56.451Z,5.20
2023-02-14T19:20:58.205Z,5.10
2023-02-14T19:26:09.232Z,5.14
2023-02-14T19:31:11.249Z,4.95
2023-02-14T19:36:14.909Z,5.09
2023-02-14T19:41:24.042Z,5.21
2023-02-14T19:46:26.226Z,5.17
2023-02-14T19:51:32.515Z,5.15
2023-02-14T19:56:36.723Z,4.93
2023-02-14T20:01:42.241Z,5.12
2023-02-14T20:06:44.956Z,4.91
2023-02-14T20:11:51.614Z,4.97
2023-02-14T20:16:55.264Z,4.81
2023-02-14T20:21:56.917Z,4.79
2023-02-14T20:27:00.299Z,4.73
2023-02-14T20:32:04.789Z,4.75
2023-02-14T20:37:06.548Z,4.67
2023-02-14T20:42:08.588Z,4.70
2023-02-14T20:47:10.913Z,4.71
2023-02-14T20:52:12.589Z,4.70
2023-02-14T20:57:14.123Z,4.63
2023-02-14T21:02:15.918Z,4.58
2023-02-14T21:07:17.576Z,4.55
2023-02-14T21:12:19.248Z,4.46
2023-02-14T21:17:20.808Z,4.51
2023-02-14T21:22:22.375Z,4.54
2023-02-14T21:27:23.980Z,4.56
2023-02-14T21:32:28.319Z,4.38
2023-02-14T21:37:29.990Z,4.26
2023-02-14T21:42:31.570Z,4.31
2023-02-14T21:47:36.766Z,4.29
2023-02-14T21:52:38.344Z,4.15
2023-02-14T21:57:39.873Z,4.08
2023-02-14T22:02:41.672Z,4.14
2023-02-14T22:07:43.489Z,4.14
2023-02-14T22:12:45.075Z,3.96
2023-02-14T22:17:46.678Z,3.92
2023-02-14T22:22:48.253Z,3.98
2023-02-14T22:27:49.829Z,3.93
2023-02-14T22:32:51.395Z,3.89
2023-02-14T22:37:53.045Z,3.98
2023-02-14T22:42:54.573Z,3.83
2023-02-14T22:47:56.562Z,3.89
2023-02-14T22:52:58.101Z,3.77
2023-02-14T22:58:01.150Z,3.71
2023-02-14T23:03:02.857Z,3.77
2023-02-14T23:08:04.465Z,3.79
2023-02-14T23:13:24.659Z,3.74
2023-02-14T23:18:44.605Z,3.72
2023-02-14T23:23:46.170Z,3.71
2023-02-14T23:28:47.752Z,3.63
2023-02-14T23:33:52.193Z,3.75
2023-02-14T23:38:53.739Z,3.89
2023-02-14T23:43:55.314Z,3.70
2023-02-14T23:48:56.895Z,3.61
2023-02-14T23:53:58.454Z,3.59
2023-02-14T23:59:00.033Z,3.66
